sensor_id;sensor_type;location;lat;lon;timestamp;pressure;altitude;pressure_sealevel;temperature;humidity
8705;BME280;4389;41.932;25.904;2023-04-27T00:01:09;99909.22;;;11.49;99.39
8705;BME280;4389;41.932;25.904;2023-04-27T00:03:37;99914.22;;;11.52;99.23
8705;BME280;4389;41.932;25.904;2023-04-27T00:06:05;99914.84;;;11.46;99.94
8705;BME280;4389;41.932;25.904;2023-04-27T00:08:32;99912.81;;;11.40;100.00
8705;BME280;4389;41.932;25.904;2023-04-27T00:10:59;99915.59;;;11.38;99.65
8705;BME280;4389;41.932;25.904;2023-04-27T00:13:26;99915.78;;;11.37;100.00
8705;BME280;4389;41.932;25.904;2023-04-27T00:15:53;99911.63;;;11.34;100.00
8705;BME280;4389;41.932;25.904;2023-04-27T00:18:20;99913.38;;;11.26;99.87
8705;BME280;4389;41.932;25.904;2023-04-27T00:20:46;99910.56;;;11.27;100.00
8705;BME280;4389;41.932;25.904;2023-04-27T00:23:15;99917.53;;;11.28;100.00
8705;BME280;4389;41.932;25.904;2023-04-27T00:25:42;99921.47;;;11.24;100.00
8705;BME280;4389;41.932;25.904;2023-04-27T00:28:09;99916.78;;;11.18;100.00
8705;BME280;4389;41.932;25.904;2023-04-27T00:30:36;99924.03;;;11.16;100.00
8705;BME280;4389;41.932;25.904;2023-04-27T00:33:03;99922.38;;;11.15;100.00
8705;BME280;4389;41.932;25.904;2023-04-27T00:35:31;99919.44;;;11.01;100.00
8705;BME280;4389;41.932;25.904;2023-04-27T00:37:58;99932.13;;;10.97;100.00
8705;BME280;4389;41.932;25.904;2023-04-27T00:40:26;99926.03;;;10.97;100.00
8705;BME280;4389;41.932;25.904;2023-04-27T00:42:53;99941.06;;;10.96;100.00
8705;BME280;4389;41.932;25.904;2023-04-27T00:45:20;99944.78;;;11.03;100.00
8705;BME280;4389;41.932;25.904;2023-04-27T00:47:46;99949.78;;;11.06;100.00
8705;BME280;4389;41.932;25.904;2023-04-27T00:50:13;99944.09;;;11.01;100.00
8705;BME280;4389;41.932;25.904;2023-04-27T00:52:40;99958.63;;;10.97;100.00
8705;BME280;4389;41.932;25.904;2023-04-27T00:55:08;99954.63;;;10.93;100.00
8705;BME280;4389;41.932;25.904;2023-04-27T00:57:36;99959.25;;;10.91;100.00
8705;BME280;4389;41.932;25.904;2023-04-27T01:00:04;99971.41;;;10.84;100.00
8705;BME280;4389;41.932;25.904;2023-04-27T01:02:31;99961.28;;;10.80;100.00
8705;BME280;4389;41.932;25.904;2023-04-27T01:04:59;99972.28;;;10.75;100.00
8705;BME280;4389;41.932;25.904;2023-04-27T01:07:26;99979.00;;;10.70;100.00
8705;BME280;4389;41.932;25.904;2023-04-27T01:09:53;99981.25;;;10.65;100.00
8705;BME280;4389;41.932;25.904;2023-04-27T01:12:21;99992.03;;;10.63;100.00
8705;BME280;4389;41.932;25.904;2023-04-27T01:14:49;99989.38;;;10.63;100.00
8705;BME280;4389;41.932;25.904;2023-04-27T01:17:16;99994.25;;;10.58;100.00
8705;BME280;4389;41.932;25.904;2023-04-27T01:19:43;99999.47;;;10.50;100.00
8705;BME280;4389;41.932;25.904;2023-04-27T01:22:10;100004.22;;;10.47;100.00
8705;BME280;4389;41.932;25.904;2023-04-27T01:24:40;100011.75;;;10.42;100.00
8705;BME280;4389;41.932;25.904;2023-04-27T01:27:07;100014.28;;;10.34;100.00
8705;BME280;4389;41.932;25.904;2023-04-27T01:29:34;100021.03;;;10.19;100.00
8705;BME280;4389;41.932;25.904;2023-04-27T01:32:01;100027.75;;;10.13;100.00
8705;BME280;4389;41.932;25.904;2023-04-27T01:34:28;100027.47;;;9.97;100.00
8705;BME280;4389;41.932;25.904;2023-04-27T01:36:55;100043.38;;;9.78;100.00
8705;BME280;4389;41.932;25.904;2023-04-27T01:39:22;100041.97;;;9.74;100.00
8705;BME280;4389;41.932;25.904;2023-04-27T01:41:51;100041.16;;;9.64;100.00
8705;BME280;4389;41.932;25.904;2023-04-27T01:44:17;100043.66;;;9.66;100.00
8705;BME280;4389;41.932;25.904;2023-04-27T01:46:45;100053.09;;;9.68;100.00
8705;BME280;4389;41.932;25.904;2023-04-27T01:49:12;100052.59;;;9.55;100.00
8705;BME280;4389;41.932;25.904;2023-04-27T01:51:39;100063.41;;;9.62;100.00
8705;BME280;4389;41.932;25.904;2023-04-27T01:54:05;100048.66;;;9.50;100.00
8705;BME280;4389;41.932;25.904;2023-04-27T01:56:33;100053.41;;;9.46;100.00
8705;BME280;4389;41.932;25.904;2023-04-27T01:59:02;100059.53;;;9.47;100.00
8705;BME280;4389;41.932;25.904;2023-04-27T02:01:28;100077.44;;;9.43;100.00
8705;BME280;4389;41.932;25.904;2023-04-27T02:03:56;100072.59;;;9.48;100.00
8705;BME280;4389;41.932;25.904;2023-04-27T02:06:23;100066.47;;;9.38;100.00
8705;BME280;4389;41.932;25.904;2023-04-27T02:08:49;100067.56;;;9.36;100.00
8705;BME280;4389;41.932;25.904;2023-04-27T02:11:16;100084.94;;;9.38;100.00
8705;BME280;4389;41.932;25.904;2023-04-27T02:13:43;100084.81;;;9.30;100.00
8705;BME280;4389;41.932;25.904;2023-04-27T02:16:12;100080.91;;;9.25;100.00
8705;BME280;4389;41.932;25.904;2023-04-27T02:18:39;100091.59;;;9.23;100.00
8705;BME280;4389;41.932;25.904;2023-04-27T02:21:09;100088.97;;;9.23;100.00
8705;BME280;4389;41.932;25.904;2023-04-27T02:23:36;100097.56;;;9.25;100.00
8705;BME280;4389;41.932;25.904;2023-04-27T02:26:03;100099.81;;;9.20;100.00
8705;BME280;4389;41.932;25.904;2023-04-27T02:28:30;100104.38;;;9.18;100.00
8705;BME280;4389;41.932;25.904;2023-04-27T02:30:57;100107.56;;;9.22;100.00
8705;BME280;4389;41.932;25.904;2023-04-27T02:33:25;100111.03;;;9.13;100.00
8705;BME280;4389;41.932;25.904;2023-04-27T02:35:52;100105.88;;;9.11;100.00
8705;BME280;4389;41.932;25.904;2023-04-27T02:38:19;100109.25;;;9.13;100.00
8705;BME280;4389;41.932;25.904;2023-04-27T02:40:45;100127.28;;;9.08;100.00
8705;BME280;4389;41.932;25.904;2023-04-27T02:43:12;100122.25;;;9.05;100.00
8705;BME280;4389;41.932;25.904;2023-04-27T02:45:39;100129.38;;;9.14;100.00
8705;BME280;4389;41.932;25.904;2023-04-27T02:48:06;100135.63;;;9.13;100.00
8705;BME280;4389;41.932;25.904;2023-04-27T02:50:39;100137.84;;;9.08;100.00
8705;BME280;4389;41.932;25.904;2023-04-27T02:53:06;100145.88;;;9.07;100.00
8705;BME280;4389;41.932;25.904;2023-04-27T02:55:33;100138.38;;;9.02;100.00
8705;BME280;4389;41.932;25.904;2023-04-27T02:58:00;100145.06;;;9.06;100.00
8705;BME280;4389;41.932;25.904;2023-04-27T03:00:27;100150.34;;;9.06;100.00
8705;BME280;4389;41.932;25.904;2023-04-27T03:02:54;100151.72;;;9.10;100.00
8705;BME280;4389;41.932;25.904;2023-04-27T03:05:21;100154.47;;;9.09;100.00
8705;BME280;4389;41.932;25.904;2023-04-27T03:07:49;100155.03;;;9.12;100.00
8705;BME280;4389;41.932;25.904;2023-04-27T03:10:16;100159.75;;;9.09;100.00
8705;BME280;4389;41.932;25.904;2023-04-27T03:12:43;100170.88;;;9.12;100.00
8705;BME280;4389;41.932;25.904;2023-04-27T03:15:10;100165.34;;;9.15;100.00
8705;BME280;4389;41.932;25.904;2023-04-27T03:17:37;100174.25;;;9.14;100.00
8705;BME280;4389;41.932;25.904;2023-04-27T03:20:05;100175.22;;;9.13;100.00
8705;BME280;4389;41.932;25.904;2023-04-27T03:22:34;100177.41;;;9.08;100.00
8705;BME280;4389;41.932;25.904;2023-04-27T03:25:02;100179.53;;;9.14;100.00
8705;BME280;4389;41.932;25.904;2023-04-27T03:27:30;100188.13;;;9.16;100.00
8705;BME280;4389;41.932;25.904;2023-04-27T03:29:56;100188.41;;;9.13;100.00
8705;BME280;4389;41.932;25.904;2023-04-27T03:32:23;100194.38;;;9.15;100.00
8705;BME280;4389;41.932;25.904;2023-04-27T03:34:50;100188.13;;;9.16;100.00
8705;BME280;4389;41.932;25.904;2023-04-27T03:37:17;100195.06;;;9.17;100.00
8705;BME280;4389;41.932;25.904;2023-04-27T03:39:44;100206.47;;;9.18;100.00
8705;BME280;4389;41.932;25.904;2023-04-27T03:42:12;100210.38;;;9.23;100.00
8705;BME280;4389;41.932;25.904;2023-04-27T03:44:39;100209.25;;;9.16;100.00
8705;BME280;4389;41.932;25.904;2023-04-27T03:47:06;100203.28;;;9.14;100.00
8705;BME280;4389;41.932;25.904;2023-04-27T03:49:34;100208.84;;;9.21;100.00
8705;BME280;4389;41.932;25.904;2023-04-27T03:52:00;100210.25;;;9.25;100.00
8705;BME280;4389;41.932;25.904;2023-04-27T03:54:27;100213.72;;;9.25;100.00
8705;BME280;4389;41.932;25.904;2023-04-27T03:56:55;100215.38;;;9.26;100.00
8705;BME280;4389;41.932;25.904;2023-04-27T03:59:23;100223.47;;;9.25;100.00
8705;BME280;4389;41.932;25.904;2023-04-27T04:01:50;100227.63;;;9.27;100.00
8705;BME280;4389;41.932;25.904;2023-04-27T04:04:17;100226.22;;;9.23;100.00
8705;BME280;4389;41.932;25.904;2023-04-27T04:06:43;100226.78;;;9.27;100.00
8705;BME280;4389;41.932;25.904;2023-04-27T04:09:10;100234.13;;;9.23;100.00
8705;BME280;4389;41.932;25.904;2023-04-27T04:11:37;100229.59;;;9.35;100.00
8705;BME280;4389;41.932;25.904;2023-04-27T04:14:04;100235.47;;;9.48;100.00
8705;BME280;4389;41.932;25.904;2023-04-27T04:16:33;100238.56;;;9.53;100.00
8705;BME280;4389;41.932;25.904;2023-04-27T04:19:00;100236.63;;;9.64;100.00
8705;BME280;4389;41.932;25.904;2023-04-27T04:21:27;100239.97;;;9.66;100.00
8705;BME280;4389;41.932;25.904;2023-04-27T04:23:53;100251.66;;;9.73;100.00
8705;BME280;4389;41.932;25.904;2023-04-27T04:26:20;100253.31;;;9.74;100.00
8705;BME280;4389;41.932;25.904;2023-04-27T04:28:48;100256.09;;;9.82;100.00
8705;BME280;4389;41.932;25.904;2023-04-27T04:31:14;100257.09;;;9.81;100.00
8705;BME280;4389;41.932;25.904;2023-04-27T04:33:44;100253.06;;;9.77;100.00
8705;BME280;4389;41.932;25.904;2023-04-27T04:36:10;100258.06;;;9.80;100.00
8705;BME280;4389;41.932;25.904;2023-04-27T04:38:38;100262.94;;;9.85;100.00
8705;BME280;4389;41.932;25.904;2023-04-27T04:41:05;100262.50;;;9.89;100.00
8705;BME280;4389;41.932;25.904;2023-04-27T04:43:32;100260.34;;;10.04;100.00
8705;BME280;4389;41.932;25.904;2023-04-27T04:45:59;100263.16;;;10.21;100.00
8705;BME280;4389;41.932;25.904;2023-04-27T04:48:26;100267.59;;;10.30;100.00
8705;BME280;4389;41.932;25.904;2023-04-27T04:50:54;100267.59;;;10.49;100.00
8705;BME280;4389;41.932;25.904;2023-04-27T04:53:21;100273.13;;;10.65;100.00
8705;BME280;4389;41.932;25.904;2023-04-27T04:55:48;100275.09;;;10.44;100.00
8705;BME280;4389;41.932;25.904;2023-04-27T04:58:15;100276.34;;;10.40;100.00
8705;BME280;4389;41.932;25.904;2023-04-27T05:00:42;100279.66;;;10.61;100.00
8705;BME280;4389;41.932;25.904;2023-04-27T05:03:09;100287.31;;;10.83;100.00
8705;BME280;4389;41.932;25.904;2023-04-27T05:05:36;100283.94;;;11.00;99.97
8705;BME280;4389;41.932;25.904;2023-04-27T05:08:04;100282.28;;;10.99;100.00
8705;BME280;4389;41.932;25.904;2023-04-27T05:10:31;100288.88;;;11.22;98.93
8705;BME280;4389;41.932;25.904;2023-04-27T05:12:58;100291.78;;;11.29;98.59
8705;BME280;4389;41.932;25.904;2023-04-27T05:15:25;100291.03;;;11.46;97.04
8705;BME280;4389;41.932;25.904;2023-04-27T05:17:51;100300.88;;;11.53;96.43
8705;BME280;4389;41.932;25.904;2023-04-27T05:20:19;100297.69;;;11.50;94.50
8705;BME280;4389;41.932;25.904;2023-04-27T05:22:46;100294.94;;;11.42;95.57
8705;BME280;4389;41.932;25.904;2023-04-27T05:25:14;100303.25;;;11.56;96.46
8705;BME280;4389;41.932;25.904;2023-04-27T05:27:41;100299.88;;;11.54;94.81
8705;BME280;4389;41.932;25.904;2023-04-27T05:30:08;100307.69;;;11.56;94.19
8705;BME280;4389;41.932;25.904;2023-04-27T05:32:35;100305.72;;;11.67;93.46
8705;BME280;4389;41.932;25.904;2023-04-27T05:35:03;100315.91;;;11.89;93.31
8705;BME280;4389;41.932;25.904;2023-04-27T05:37:30;100307.97;;;11.89;92.19
8705;BME280;4389;41.932;25.904;2023-04-27T05:39:57;100312.09;;;11.74;92.54
8705;BME280;4389;41.932;25.904;2023-04-27T05:42:25;100310.75;;;11.97;92.51
8705;BME280;4389;41.932;25.904;2023-04-27T05:44:52;100315.53;;;12.11;92.05
8705;BME280;4389;41.932;25.904;2023-04-27T05:47:19;100317.78;;;12.06;91.90
8705;BME280;4389;41.932;25.904;2023-04-27T05:49:49;100322.06;;;12.17;90.92
8705;BME280;4389;41.932;25.904;2023-04-27T05:52:17;100329.00;;;12.00;89.37
8705;BME280;4389;41.932;25.904;2023-04-27T05:54:45;100320.34;;;11.98;90.47
8705;BME280;4389;41.932;25.904;2023-04-27T05:57:12;100333.97;;;12.03;91.16
8705;BME280;4389;41.932;25.904;2023-04-27T05:59:41;100332.50;;;12.18;91.75
8705;BME280;4389;41.932;25.904;2023-04-27T06:02:08;100328.91;;;11.92;90.24
8705;BME280;4389;41.932;25.904;2023-04-27T06:04:35;100340.97;;;12.04;90.14
8705;BME280;4389;41.932;25.904;2023-04-27T06:07:06;100334.59;;;11.97;90.51
8705;BME280;4389;41.932;25.904;2023-04-27T06:09:33;100329.75;;;12.10;89.60
8705;BME280;4389;41.932;25.904;2023-04-27T06:12:01;100332.50;;;12.18;91.01
8705;BME280;4389;41.932;25.904;2023-04-27T06:14:29;100334.78;;;12.13;90.67
8705;BME280;4389;41.932;25.904;2023-04-27T06:16:58;100331.72;;;12.08;90.84
8705;BME280;4389;41.932;25.904;2023-04-27T06:19:25;100327.91;;;12.20;90.66
8705;BME280;4389;41.932;25.904;2023-04-27T06:21:52;100323.41;;;12.38;90.35
8705;BME280;4389;41.932;25.904;2023-04-27T06:24:19;100325.84;;;12.14;88.97
8705;BME280;4389;41.932;25.904;2023-04-27T06:26:46;100330.59;;;12.11;89.30
8705;BME280;4389;41.932;25.904;2023-04-27T06:29:13;100335.34;;;12.34;89.77
8705;BME280;4389;41.932;25.904;2023-04-27T06:31:40;100332.22;;;12.56;87.80
8705;BME280;4389;41.932;25.904;2023-04-27T06:34:08;100339.84;;;12.94;85.84
8705;BME280;4389;41.932;25.904;2023-04-27T06:36:35;100344.91;;;12.62;85.35
8705;BME280;4389;41.932;25.904;2023-04-27T06:39:02;100343.44;;;12.68;84.66
8705;BME280;4389;41.932;25.904;2023-04-27T06:41:29;100339.19;;;12.57;83.87
8705;BME280;4389;41.932;25.904;2023-04-27T06:43:56;100340.53;;;12.96;84.74
8705;BME280;4389;41.932;25.904;2023-04-27T06:46:22;100349.34;;;12.79;82.90
8705;BME280;4389;41.932;25.904;2023-04-27T06:48:49;100348.63;;;12.69;83.86
8705;BME280;4389;41.932;25.904;2023-04-27T06:51:18;100352.53;;;12.65;82.99
8705;BME280;4389;41.932;25.904;2023-04-27T06:53:45;100349.66;;;12.76;83.72
8705;BME280;4389;41.932;25.904;2023-04-27T06:56:12;100358.91;;;12.72;83.03
8705;BME280;4389;41.932;25.904;2023-04-27T06:58:39;100359.84;;;12.63;79.94
8705;BME280;4389;41.932;25.904;2023-04-27T07:01:06;100361.03;;;12.51;79.88
8705;BME280;4389;41.932;25.904;2023-04-27T07:03:33;100359.59;;;12.57;80.96
8705;BME280;4389;41.932;25.904;2023-04-27T07:06:00;100370.31;;;12.65;80.07
8705;BME280;4389;41.932;25.904;2023-04-27T07:08:28;100365.94;;;12.81;80.48
8705;BME280;4389;41.932;25.904;2023-04-27T07:10:55;100361.94;;;12.77;80.44
8705;BME280;4389;41.932;25.904;2023-04-27T07:13:22;100376.63;;;12.89;79.64
8705;BME280;4389;41.932;25.904;2023-04-27T07:15:53;100368.53;;;12.91;79.32
8705;BME280;4389;41.932;25.904;2023-04-27T07:18:22;100371.97;;;12.83;78.67
8705;BME280;4389;41.932;25.904;2023-04-27T07:20:48;100373.91;;;12.64;78.58
8705;BME280;4389;41.932;25.904;2023-04-27T07:23:15;100371.97;;;12.83;78.69
8705;BME280;4389;41.932;25.904;2023-04-27T07:25:43;100377.81;;;12.87;78.12
8705;BME280;4389;41.932;25.904;2023-04-27T07:28:11;100381.81;;;12.73;78.56
8705;BME280;4389;41.932;25.904;2023-04-27T07:30:38;100390.31;;;12.94;78.44
8705;BME280;4389;41.932;25.904;2023-04-27T07:33:06;100375.44;;;12.84;78.53
8705;BME280;4389;41.932;25.904;2023-04-27T07:35:33;100374.00;;;13.07;78.71
8705;BME280;4389;41.932;25.904;2023-04-27T07:38:00;100378.97;;;13.27;77.90
8705;BME280;4389;41.932;25.904;2023-04-27T07:40:27;100392.69;;;13.40;78.00
8705;BME280;4389;41.932;25.904;2023-04-27T07:42:55;100395.50;;;13.39;76.12
8705;BME280;4389;41.932;25.904;2023-04-27T07:45:23;100387.16;;;13.59;76.08
8705;BME280;4389;41.932;25.904;2023-04-27T07:47:56;100395.81;;;13.61;75.48
8705;BME280;4389;41.932;25.904;2023-04-27T07:50:25;100384.16;;;13.87;74.31
8705;BME280;4389;41.932;25.904;2023-04-27T07:52:52;100378.88;;;13.95;73.96
8705;BME280;4389;41.932;25.904;2023-04-27T07:55:19;100383.44;;;14.11;73.14
8705;BME280;4389;41.932;25.904;2023-04-27T07:57:48;100391.88;;;14.32;73.89
8705;BME280;4389;41.932;25.904;2023-04-27T08:00:16;100386.22;;;14.43;72.38
8705;BME280;4389;41.932;25.904;2023-04-27T08:02:43;100387.88;;;14.36;70.35
8705;BME280;4389;41.932;25.904;2023-04-27T08:05:11;100405.84;;;14.42;71.24
8705;BME280;4389;41.932;25.904;2023-04-27T08:07:38;100395.50;;;14.31;70.60
8705;BME280;4389;41.932;25.904;2023-04-27T08:10:06;100385.53;;;14.25;70.56
8705;BME280;4389;41.932;25.904;2023-04-27T08:12:33;100397.00;;;14.33;71.11
8705;BME280;4389;41.932;25.904;2023-04-27T08:15:00;100392.19;;;14.37;69.83
8705;BME280;4389;41.932;25.904;2023-04-27T08:17:29;100398.41;;;14.69;72.46
8705;BME280;4389;41.932;25.904;2023-04-27T08:19:55;100389.63;;;14.77;69.04
8705;BME280;4389;41.932;25.904;2023-04-27T08:22:22;100393.28;;;14.84;69.93
8705;BME280;4389;41.932;25.904;2023-04-27T08:24:49;100390.28;;;14.79;70.17
8705;BME280;4389;41.932;25.904;2023-04-27T08:27:16;100393.78;;;14.95;66.54
8705;BME280;4389;41.932;25.904;2023-04-27T08:29:46;100398.44;;;14.77;68.87
8705;BME280;4389;41.932;25.904;2023-04-27T08:32:14;100403.59;;;14.71;68.82
8705;BME280;4389;41.932;25.904;2023-04-27T08:34:42;100404.25;;;14.65;64.91
8705;BME280;4389;41.932;25.904;2023-04-27T08:37:10;100397.53;;;14.45;68.01
8705;BME280;4389;41.932;25.904;2023-04-27T08:39:37;100401.25;;;14.60;66.25
8705;BME280;4389;41.932;25.904;2023-04-27T08:42:11;100387.47;;;14.96;68.40
8705;BME280;4389;41.932;25.904;2023-04-27T08:44:38;100387.63;;;15.19;68.12
8705;BME280;4389;41.932;25.904;2023-04-27T08:47:05;100391.81;;;15.21;64.94
8705;BME280;4389;41.932;25.904;2023-04-27T08:49:33;100391.31;;;15.34;64.47
8705;BME280;4389;41.932;25.904;2023-04-27T08:52:01;100405.63;;;15.25;62.96
8705;BME280;4389;41.932;25.904;2023-04-27T08:54:28;100394.13;;;15.00;61.62
8705;BME280;4389;41.932;25.904;2023-04-27T08:56:56;100387.97;;;15.00;63.86
8705;BME280;4389;41.932;25.904;2023-04-27T08:59:22;100410.63;;;15.36;61.46
8705;BME280;4389;41.932;25.904;2023-04-27T09:01:49;100408.13;;;15.10;62.25
8705;BME280;4389;41.932;25.904;2023-04-27T09:04:16;100382.47;;;15.01;61.95
8705;BME280;4389;41.932;25.904;2023-04-27T09:06:44;100384.97;;;15.19;63.86
8705;BME280;4389;41.932;25.904;2023-04-27T09:09:20;100381.59;;;15.57;59.59
8705;BME280;4389;41.932;25.904;2023-04-27T09:11:47;100374.56;;;15.72;59.94
8705;BME280;4389;41.932;25.904;2023-04-27T09:14:16;100394.13;;;16.11;63.33
8705;BME280;4389;41.932;25.904;2023-04-27T09:16:43;100368.16;;;15.97;61.18
8705;BME280;4389;41.932;25.904;2023-04-27T09:19:10;100378.47;;;16.00;61.26
8705;BME280;4389;41.932;25.904;2023-04-27T09:21:37;100362.69;;;15.82;61.99
8705;BME280;4389;41.932;25.904;2023-04-27T09:24:14;100366.94;;;15.61;63.23
8705;BME280;4389;41.932;25.904;2023-04-27T09:26:40;100362.63;;;15.60;62.96
8705;BME280;4389;41.932;25.904;2023-04-27T09:29:14;100355.44;;;15.60;62.66
8705;BME280;4389;41.932;25.904;2023-04-27T09:31:41;100365.97;;;15.14;65.14
8705;BME280;4389;41.932;25.904;2023-04-27T09:34:08;100358.97;;;15.21;63.63
8705;BME280;4389;41.932;25.904;2023-04-27T09:36:35;100351.94;;;15.52;64.39
8705;BME280;4389;41.932;25.904;2023-04-27T09:39:03;100343.22;;;15.66;64.08
8705;BME280;4389;41.932;25.904;2023-04-27T09:41:32;100350.00;;;15.92;62.29
8705;BME280;4389;41.932;25.904;2023-04-27T09:43:59;100348.25;;;16.07;59.96
8705;BME280;4389;41.932;25.904;2023-04-27T09:46:27;100345.25;;;15.64;62.44
8705;BME280;4389;41.932;25.904;2023-04-27T09:48:55;100347.72;;;15.73;63.47
8705;BME280;4389;41.932;25.904;2023-04-27T09:51:22;100356.09;;;15.70;61.05
8705;BME280;4389;41.932;25.904;2023-04-27T09:53:51;100359.75;;;15.61;63.28
8705;BME280;4389;41.932;25.904;2023-04-27T09:56:26;100363.81;;;15.49;63.54
8705;BME280;4389;41.932;25.904;2023-04-27T09:59:17;100359.97;;;15.44;64.27
8705;BME280;4389;41.932;25.904;2023-04-27T10:01:47;100358.97;;;15.37;63.11
8705;BME280;4389;41.932;25.904;2023-04-27T10:04:32;100347.94;;;15.56;63.32
8705;BME280;4389;41.932;25.904;2023-04-27T10:07:03;100361.28;;;15.48;65.17
8705;BME280;4389;41.932;25.904;2023-04-27T10:09:34;100361.25;;;15.64;64.15
8705;BME280;4389;41.932;25.904;2023-04-27T10:12:13;100360.09;;;15.66;65.06
8705;BME280;4389;41.932;25.904;2023-04-27T10:14:49;100366.88;;;15.77;63.14
8705;BME280;4389;41.932;25.904;2023-04-27T10:17:17;100368.63;;;15.54;60.30
8705;BME280;4389;41.932;25.904;2023-04-27T10:20:02;100358.31;;;15.43;59.53
8705;BME280;4389;41.932;25.904;2023-04-27T10:22:36;100383.63;;;15.55;59.90
8705;BME280;4389;41.932;25.904;2023-04-27T10:25:18;100371.13;;;15.47;59.45
8705;BME280;4389;41.932;25.904;2023-04-27T10:27:51;100362.41;;;15.69;58.96
8705;BME280;4389;41.932;25.904;2023-04-27T10:30:20;100371.41;;;15.68;58.07
8705;BME280;4389;41.932;25.904;2023-04-27T10:32:51;100376.75;;;15.68;57.12
8705;BME280;4389;41.932;25.904;2023-04-27T10:35:19;100373.78;;;15.63;57.89
8705;BME280;4389;41.932;25.904;2023-04-27T10:37:47;100371.66;;;15.89;56.61
8705;BME280;4389;41.932;25.904;2023-04-27T10:40:14;100380.97;;;16.01;58.23
8705;BME280;4389;41.932;25.904;2023-04-27T10:42:43;100383.09;;;16.14;56.13
8705;BME280;4389;41.932;25.904;2023-04-27T10:45:11;100371.50;;;16.37;56.22
8705;BME280;4389;41.932;25.904;2023-04-27T10:47:42;100375.34;;;16.27;54.74
8705;BME280;4389;41.932;25.904;2023-04-27T10:50:11;100378.50;;;16.38;57.20
8705;BME280;4389;41.932;25.904;2023-04-27T10:52:42;100377.91;;;16.51;55.63
8705;BME280;4389;41.932;25.904;2023-04-27T10:55:14;100373.63;;;16.42;55.50
8705;BME280;4389;41.932;25.904;2023-04-27T10:57:48;100368.19;;;16.27;56.02
8705;BME280;4389;41.932;25.904;2023-04-27T11:00:22;100374.47;;;16.42;54.22
8705;BME280;4389;41.932;25.904;2023-04-27T11:02:52;100366.19;;;16.60;56.12
8705;BME280;4389;41.932;25.904;2023-04-27T11:05:20;100377.09;;;16.73;56.00
8705;BME280;4389;41.932;25.904;2023-04-27T11:07:47;100381.47;;;16.74;55.98
8705;BME280;4389;41.932;25.904;2023-04-27T11:10:15;100378.16;;;16.41;55.21
8705;BME280;4389;41.932;25.904;2023-04-27T11:12:42;100384.50;;;16.32;56.68
8705;BME280;4389;41.932;25.904;2023-04-27T11:15:10;100375.47;;;16.41;56.74
8705;BME280;4389;41.932;25.904;2023-04-27T11:17:39;100371.56;;;16.21;58.03
8705;BME280;4389;41.932;25.904;2023-04-27T11:20:08;100360.09;;;16.05;58.47
8705;BME280;4389;41.932;25.904;2023-04-27T11:22:42;100379.59;;;16.05;58.02
8705;BME280;4389;41.932;25.904;2023-04-27T11:25:10;100378.72;;;16.21;57.77
8705;BME280;4389;41.932;25.904;2023-04-27T11:27:38;100373.06;;;16.16;58.19
8705;BME280;4389;41.932;25.904;2023-04-27T11:30:18;100376.41;;;16.18;57.66
8705;BME280;4389;41.932;25.904;2023-04-27T11:32:45;100388.91;;;16.17;57.69
8705;BME280;4389;41.932;25.904;2023-04-27T11:35:14;100380.47;;;16.36;55.60
8705;BME280;4389;41.932;25.904;2023-04-27T11:37:41;100380.16;;;16.31;55.98
8705;BME280;4389;41.932;25.904;2023-04-27T11:40:08;100389.72;;;16.26;56.46
8705;BME280;4389;41.932;25.904;2023-04-27T11:42:36;100388.25;;;16.54;55.77
8705;BME280;4389;41.932;25.904;2023-04-27T11:45:10;100376.94;;;16.52;55.18
8705;BME280;4389;41.932;25.904;2023-04-27T11:47:37;100385.91;;;16.59;55.23
8705;BME280;4389;41.932;25.904;2023-04-27T11:50:07;100386.22;;;16.56;54.53
8705;BME280;4389;41.932;25.904;2023-04-27T11:52:37;100375.31;;;16.35;55.85
8705;BME280;4389;41.932;25.904;2023-04-27T11:55:05;100383.88;;;16.61;55.79
8705;BME280;4389;41.932;25.904;2023-04-27T11:57:34;100387.84;;;16.65;55.78
8705;BME280;4389;41.932;25.904;2023-04-27T12:00:04;100373.66;;;16.87;56.30
8705;BME280;4389;41.932;25.904;2023-04-27T12:02:35;100382.28;;;16.44;57.38
8705;BME280;4389;41.932;25.904;2023-04-27T12:05:03;100374.84;;;16.62;56.57
8705;BME280;4389;41.932;25.904;2023-04-27T12:07:32;100385.84;;;16.67;56.53
8705;BME280;4389;41.932;25.904;2023-04-27T12:10:00;100386.81;;;16.66;54.82
8705;BME280;4389;41.932;25.904;2023-04-27T12:12:27;100380.72;;;16.57;57.36
8705;BME280;4389;41.932;25.904;2023-04-27T12:14:54;100383.88;;;16.61;54.24
8705;BME280;4389;41.932;25.904;2023-04-27T12:17:21;100385.09;;;16.81;55.66
8705;BME280;4389;41.932;25.904;2023-04-27T12:19:49;100372.47;;;17.12;52.95
8705;BME280;4389;41.932;25.904;2023-04-27T12:22:15;100380.78;;;17.17;53.33
8705;BME280;4389;41.932;25.904;2023-04-27T12:24:42;100390.38;;;16.89;54.95
8705;BME280;4389;41.932;25.904;2023-04-27T12:27:11;100382.22;;;16.60;55.21
8705;BME280;4389;41.932;25.904;2023-04-27T12:29:38;100383.13;;;16.44;57.38
8705;BME280;4389;41.932;25.904;2023-04-27T12:32:05;100383.50;;;16.64;57.54
8705;BME280;4389;41.932;25.904;2023-04-27T12:34:32;100385.78;;;16.75;55.37
8705;BME280;4389;41.932;25.904;2023-04-27T12:36:59;100382.22;;;16.82;55.76
8705;BME280;4389;41.932;25.904;2023-04-27T12:39:26;100380.19;;;16.62;55.07
8705;BME280;4389;41.932;25.904;2023-04-27T12:41:53;100385.19;;;17.10;55.50
8705;BME280;4389;41.932;25.904;2023-04-27T12:44:22;100374.59;;;16.94;56.25
8705;BME280;4389;41.932;25.904;2023-04-27T12:46:49;100376.38;;;17.01;55.81
8705;BME280;4389;41.932;25.904;2023-04-27T12:49:17;100386.78;;;17.33;55.47
8705;BME280;4389;41.932;25.904;2023-04-27T12:51:43;100386.69;;;17.49;54.42
8705;BME280;4389;41.932;25.904;2023-04-27T12:54:12;100380.63;;;17.55;54.45
8705;BME280;4389;41.932;25.904;2023-04-27T12:56:39;100385.09;;;17.40;53.98
8705;BME280;4389;41.932;25.904;2023-04-27T12:59:06;100376.75;;;17.35;53.39
8705;BME280;4389;41.932;25.904;2023-04-27T13:01:34;100379.13;;;17.16;53.68
8705;BME280;4389;41.932;25.904;2023-04-27T13:04:02;100377.09;;;17.18;52.68